CG Thunder Bay — NNTB — position and weather

sailwx.info

Track history (hours):
 
Tides and Currents Weather Stations Pressure Air Temp Water Temp Dewpoint Dewpoint Depression Visibility Wind Speed Wind Dir Waves Ship Positions

CG Thunder Bay

Last reported at 2017-Nov-07 18:26 UTC. Time now 2017-Nov-20 07:58 UTC.
Position N 39°13' W 076°33'.
Warning: this ship's position is 12 days out of date.

Length 42 m; draft 4 m.

Type: Military. MMSI: 366999983.

Date/timePositionNaut miles runAvg speedWind from/ knotsBaromVisibWave heightAir tempDewpointWater temp
2017-Nov-07 18:26N 39°13' W 076°33'0 0.5
2017-Nov-07 17:30N 39°13' W 076°33'0 0.0
2017-Nov-07 17:00N 39°13' W 076°33'5 9.6
2017-Nov-07 16:26N 39°11' W 076°26'510.8
2017-Nov-07 15:59N 39°09' W 076°21'0 0.2
2017-Nov-07 15:00N 39°09' W 076°21'510.5
2017-Nov-07 14:30N 39°11' W 076°27'2 4.4
2017-Nov-07 13:58N 39°12' W 076°30'4 9.5
2017-Nov-07 13:31N 39°15' W 076°34'3 0.4
2017-Nov-07 05:25N 39°17' W 076°36'0 0.0
2017-Nov-07 04:58N 39°17' W 076°36'0 0.0
2017-Nov-07 04:25N 39°17' W 076°36'0 0.0
2017-Nov-07 03:55N 39°17' W 076°36'0 0.0
2017-Nov-07 03:28N 39°17' W 076°36'0 0.0
2017-Nov-07 02:49N 39°17' W 076°36'0 0.0
2017-Nov-07 02:25N 39°17' W 076°36'0 0.0
2017-Nov-07 01:55N 39°17' W 076°36'0 0.0
2017-Nov-07 01:31N 39°17' W 076°36'0 0.0
2017-Nov-07 01:00N 39°17' W 076°36'0 0.0
2017-Nov-07 00:24N 39°17' W 076°36'0 0.0
2017-Nov-06 23:48N 39°17' W 076°36'0 0.0
2017-Nov-06 23:25N 39°17' W 076°36'0 0.0
2017-Nov-06 22:57N 39°17' W 076°36'0 0.0
2017-Nov-06 21:34N 39°17' W 076°36'0 0.0
2017-Nov-06 21:28N 39°17' W 076°36'0 0.0
2017-Nov-06 20:55N 39°17' W 076°36'0 0.0
2017-Nov-06 20:10N 39°17' W 076°36'0 0.0
2017-Nov-06 02:30N 39°17' W 076°36'0 0.0
2017-Nov-05 22:07N 39°17' W 076°36'0 0.0
2017-Nov-05 21:55N 39°17' W 076°36'0 0.0
2017-Nov-05 21:25N 39°17' W 076°36'0 0.0
2017-Nov-05 20:49N 39°17' W 076°36'0 0.0
2017-Nov-05 20:25N 39°17' W 076°36'0 0.0
2017-Nov-05 19:55N 39°17' W 076°36'0 0.0
2017-Nov-05 19:28N 39°17' W 076°36'0 0.0
2017-Nov-05 18:55N 39°17' W 076°36'0 0.0
2017-Nov-05 18:28N 39°17' W 076°36'0 0.0
2017-Nov-05 18:01N 39°17' W 076°36'0 0.0
2017-Nov-05 17:31N 39°17' W 076°36'0 0.0
2017-Nov-05 16:58N 39°17' W 076°36'0 0.0
2017-Nov-05 16:19N 39°17' W 076°36'0 0.0
2017-Nov-05 15:58N 39°17' W 076°36'0 0.0
2017-Nov-05 15:25N 39°17' W 076°36'0 0.0
2017-Nov-05 14:55N 39°17' W 076°36'0 0.0
2017-Nov-05 14:27N 39°17' W 076°36'0 0.0
2017-Nov-05 13:58N 39°17' W 076°36'0 0.0
2017-Nov-05 13:25N 39°17' W 076°36'0 0.0
2017-Nov-05 12:43N 39°17' W 076°36'0 0.0
2017-Nov-05 12:28N 39°17' W 076°36'0 0.0
2017-Nov-05 11:58N 39°17' W 076°36'0 0.0
2017-Nov-05 11:19N 39°17' W 076°36'0 0.0
2017-Nov-05 11:01N 39°17' W 076°36'0 0.0
2017-Nov-05 10:30N 39°17' W 076°36'0 0.0
2017-Nov-05 10:00N 39°17' W 076°36'0 0.0
2017-Nov-05 09:30N 39°17' W 076°36'0 0.0
2017-Nov-05 09:00N 39°17' W 076°36'0 0.0
2017-Nov-05 08:30N 39°17' W 076°36'0 0.0
2017-Nov-05 07:55N 39°17' W 076°36'0 0.0
2017-Nov-05 07:25N 39°17' W 076°36'0 0.0
2017-Nov-05 06:58N 39°17' W 076°36'0 0.0
2017-Nov-05 06:25N 39°17' W 076°36'0 0.0
2017-Nov-05 05:58N 39°17' W 076°36'0 0.0
2017-Nov-05 05:28N 39°17' W 076°36'0 0.0
2017-Nov-05 04:52N 39°17' W 076°36'0 0.0
2017-Nov-05 04:25N 39°17' W 076°36'0 0.0
2017-Nov-05 03:58N 39°17' W 076°36'0 0.0
2017-Nov-05 03:28N 39°17' W 076°36'0 0.0
2017-Nov-05 02:10N 39°17' W 076°36'0 0.0
2017-Nov-05 01:55N 39°17' W 076°36'0 0.0
2017-Nov-05 01:16N 39°17' W 076°36'0 0.0
2017-Nov-05 01:00N 39°17' W 076°36'0 0.0
2017-Nov-05 00:25N 39°17' W 076°36'0 0.0
2017-Nov-04 23:55N 39°17' W 076°36'0 0.0
2017-Nov-04 18:27N 39°17' W 076°36'3 5.8
2017-Nov-04 18:00N 39°15' W 076°34'510.3
2017-Nov-04 17:29N 39°12' W 076°29'611.8
2017-Nov-04 16:59N 39°09' W 076°22'610.3
2017-Nov-04 16:24N 39°13' W 076°15'712.9
2017-Nov-04 15:54N 39°19' W 076°13'512.8
2017-Nov-04 15:30N 39°22' W 076°08'611.6
2017-Nov-04 15:00N 39°25' W 076°02'510.2
2017-Nov-04 14:30N 39°29' W 075°57'4 8.8
2017-Nov-04 14:00N 39°31' W 075°53'4 7.4
2017-Nov-04 13:30N 39°32' W 075°48'4 7.3
2017-Nov-04 13:00N 39°33' W 075°43'4 8.3
2017-Nov-04 12:30N 39°33' W 075°38'4 8.5
2017-Nov-04 12:00N 39°33' W 075°32'2 3.2
2017-Nov-04 11:30N 39°32' W 075°33'0 0.0
2017-Nov-04 11:00N 39°32' W 075°33'0 0.0
2017-Nov-04 10:30N 39°32' W 075°33'0 0.0
2017-Nov-04 10:00N 39°32' W 075°33'0 0.0
2017-Nov-04 09:30N 39°32' W 075°33'0 0.0
2017-Nov-04 09:00N 39°32' W 075°33'0 0.0
2017-Nov-04 08:29N 39°32' W 075°33'0 0.0
2017-Nov-04 07:59N 39°32' W 075°33'0 0.0
2017-Nov-04 07:30N 39°32' W 075°33'0 0.0
2017-Nov-04 07:00N 39°32' W 075°33'0 0.0
2017-Nov-04 06:30N 39°32' W 075°33'0 0.0
2017-Nov-04 06:00N 39°32' W 075°33'0 0.0
2017-Nov-04 05:30N 39°32' W 075°33'0 0.0
2017-Nov-04 05:00N 39°32' W 075°33'0 0.0
2017-Nov-04 04:30N 39°32' W 075°33'0 0.1
2017-Nov-04 04:00N 39°32' W 075°33'0 0.0
2017-Nov-04 03:30N 39°32' W 075°33'0 0.0
2017-Nov-04 03:00N 39°32' W 075°33'0 0.0
2017-Nov-04 02:30N 39°32' W 075°33'0 0.0
2017-Nov-04 02:00N 39°32' W 075°33'0 0.0
2017-Nov-04 01:30N 39°32' W 075°33'0 0.1
2017-Nov-04 01:00N 39°32' W 075°33'0 0.1
2017-Nov-04 00:30N 39°32' W 075°33'0 0.0
2017-Nov-04 00:00N 39°32' W 075°33'0 0.0
2017-Nov-03 23:30N 39°32' W 075°33'0 0.0
2017-Nov-03 23:00N 39°32' W 075°33'0 0.0
2017-Nov-03 22:30N 39°32' W 075°33'0 0.0
2017-Nov-03 21:59N 39°32' W 075°33'0 0.0
2017-Nov-03 21:29N 39°32' W 075°33'0 0.0
2017-Nov-03 20:59N 39°32' W 075°33'0 0.0
2017-Nov-03 20:29N 39°32' W 075°33'0 0.0
2017-Nov-03 20:00N 39°32' W 075°33'0 0.0
2017-Nov-03 19:30N 39°32' W 075°33'0 0.0
2017-Nov-03 19:00N 39°32' W 075°33'0 0.0
2017-Nov-03 18:30N 39°32' W 075°33'0 0.0
2017-Nov-03 18:00N 39°32' W 075°33'0 0.1
2017-Nov-03 17:30N 39°32' W 075°33'0 0.0
2017-Nov-03 17:00N 39°32' W 075°33'0 0.0
2017-Nov-03 16:30N 39°32' W 075°33'0 0.0
2017-Nov-03 16:00N 39°32' W 075°33'0 0.0
2017-Nov-03 15:30N 39°32' W 075°33'0 0.0
2017-Nov-03 15:00N 39°32' W 075°33'3 5.6
2017-Nov-03 14:30N 39°29' W 075°34'713.5
2017-Nov-03 14:01N 39°23' W 075°29'714.4
2017-Nov-03 13:30N 39°18' W 075°23'714.0
2017-Nov-03 13:00N 39°13' W 075°17'713.7
2017-Nov-03 12:30N 39°07' W 075°13'612.9
2017-Nov-03 12:00N 39°01' W 075°09'612.7
2017-Nov-03 11:30N 38°55' W 075°06'5 9.3
2017-Nov-03 10:56N 38°50' W 075°03'4 8.1
2017-Nov-03 10:28N 38°48' W 074°59'5 9.3
2017-Nov-03 09:58N 38°49' W 074°53'4 9.1
2017-Nov-03 09:30N 38°52' W 074°49'5 9.4
2017-Nov-03 08:57N 38°56' W 074°45'4 9.4
2017-Nov-03 08:30N 38°59' W 074°42'5 9.4
2017-Nov-03 08:00N 39°02' W 074°37'5 9.4
2017-Nov-03 07:29N 39°05' W 074°32'5 9.6
2017-Nov-03 07:00N 39°07' W 074°27'5 9.5
2017-Nov-03 06:30N 39°10' W 074°22'5 9.7
2017-Nov-03 06:00N 39°14' W 074°18'5 9.7
2017-Nov-03 05:27N 39°19' W 074°15'5 9.6
2017-Nov-03 04:54N 39°23' W 074°11'4 9.7
2017-Nov-03 04:30N 39°26' W 074°08'7 9.7
2017-Nov-03 03:46N 39°33' W 074°03'2 9.3
2017-Nov-03 03:30N 39°34' W 074°01'5 9.7
2017-Nov-03 03:01N 39°38' W 073°58'5 9.6
2017-Nov-03 02:26N 39°43' W 073°54'5 9.5
2017-Nov-03 01:54N 39°48' W 073°53'5 9.5
2017-Nov-03 01:23N 39°53' W 073°52'7 9.6
2017-Nov-03 00:42N 39°59' W 073°51'3 9.5
2017-Nov-03 00:23N 40°02' W 073°51'5 9.5
2017-Nov-02 23:53N 40°07' W 073°50'14 9.4
2017-Nov-02 22:27N 40°20' W 073°49'4 8.7
2017-Nov-02 21:57N 40°25' W 073°50'4 9.3
2017-Nov-02 21:30N 40°28' W 073°52'5 9.8
2017-Nov-02 20:57N 40°31' W 073°59'4 9.8
2017-Nov-02 20:31N 40°34' W 074°02'611.2
2017-Nov-02 20:01N 40°40' W 074°04'1 2.3
2017-Nov-02 19:30N 40°40' W 074°05'  
Track history (hours):
 
Tides and Currents Weather Stations Pressure Air Temp Water Temp Dewpoint Dewpoint Depression Visibility Wind Speed Wind Dir Waves Ship Positions

CG Thunder Bay

Last reported at 2017-Nov-07 18:26 UTC. Time now 2017-Nov-20 07:58 UTC.
Position N 39°13' W 076°33'.
Warning: this ship's position is 12 days out of date.

Length 42 m; draft 4 m.

Type: Military. MMSI: 366999983.

Date/timePositionNaut miles runAvg speedWind from/ knotsBaromVisibWave heightAir tempDewpointWater temp
2017-Nov-07 18:26N 39°13' W 076°33'0 0.5
2017-Nov-07 17:30N 39°13' W 076°33'0 0.0
2017-Nov-07 17:00N 39°13' W 076°33'5 9.6
2017-Nov-07 16:26N 39°11' W 076°26'510.8
2017-Nov-07 15:59N 39°09' W 076°21'0 0.2
2017-Nov-07 15:00N 39°09' W 076°21'510.5
2017-Nov-07 14:30N 39°11' W 076°27'2 4.4
2017-Nov-07 13:58N 39°12' W 076°30'4 9.5
2017-Nov-07 13:31N 39°15' W 076°34'3 0.4
2017-Nov-07 05:25N 39°17' W 076°36'0 0.0
2017-Nov-07 04:58N 39°17' W 076°36'0 0.0
2017-Nov-07 04:25N 39°17' W 076°36'0 0.0
2017-Nov-07 03:55N 39°17' W 076°36'0 0.0
2017-Nov-07 03:28N 39°17' W 076°36'0 0.0
2017-Nov-07 02:49N 39°17' W 076°36'0 0.0
2017-Nov-07 02:25N 39°17' W 076°36'0 0.0
2017-Nov-07 01:55N 39°17' W 076°36'0 0.0
2017-Nov-07 01:31N 39°17' W 076°36'0 0.0
2017-Nov-07 01:00N 39°17' W 076°36'0 0.0
2017-Nov-07 00:24N 39°17' W 076°36'0 0.0
2017-Nov-06 23:48N 39°17' W 076°36'0 0.0
2017-Nov-06 23:25N 39°17' W 076°36'0 0.0
2017-Nov-06 22:57N 39°17' W 076°36'0 0.0
2017-Nov-06 21:34N 39°17' W 076°36'0 0.0
2017-Nov-06 21:28N 39°17' W 076°36'0 0.0
2017-Nov-06 20:55N 39°17' W 076°36'0 0.0
2017-Nov-06 20:10N 39°17' W 076°36'0 0.0
2017-Nov-06 02:30N 39°17' W 076°36'0 0.0
2017-Nov-05 22:07N 39°17' W 076°36'0 0.0
2017-Nov-05 21:55N 39°17' W 076°36'0 0.0
2017-Nov-05 21:25N 39°17' W 076°36'0 0.0
2017-Nov-05 20:49N 39°17' W 076°36'0 0.0
2017-Nov-05 20:25N 39°17' W 076°36'0 0.0
2017-Nov-05 19:55N 39°17' W 076°36'0 0.0
2017-Nov-05 19:28N 39°17' W 076°36'0 0.0
2017-Nov-05 18:55N 39°17' W 076°36'0 0.0
2017-Nov-05 18:28N 39°17' W 076°36'0 0.0
2017-Nov-05 18:01N 39°17' W 076°36'0 0.0
2017-Nov-05 17:31N 39°17' W 076°36'0 0.0
2017-Nov-05 16:58N 39°17' W 076°36'0 0.0
2017-Nov-05 16:19N 39°17' W 076°36'0 0.0
2017-Nov-05 15:58N 39°17' W 076°36'0 0.0
2017-Nov-05 15:25N 39°17' W 076°36'0 0.0
2017-Nov-05 14:55N 39°17' W 076°36'0 0.0
2017-Nov-05 14:27N 39°17' W 076°36'0 0.0
2017-Nov-05 13:58N 39°17' W 076°36'0 0.0
2017-Nov-05 13:25N 39°17' W 076°36'0 0.0
2017-Nov-05 12:43N 39°17' W 076°36'0 0.0
2017-Nov-05 12:28N 39°17' W 076°36'0 0.0
2017-Nov-05 11:58N 39°17' W 076°36'0 0.0
2017-Nov-05 11:19N 39°17' W 076°36'0 0.0
2017-Nov-05 11:01N 39°17' W 076°36'0 0.0
2017-Nov-05 10:30N 39°17' W 076°36'0 0.0
2017-Nov-05 10:00N 39°17' W 076°36'0 0.0
2017-Nov-05 09:30N 39°17' W 076°36'0 0.0
2017-Nov-05 09:00N 39°17' W 076°36'0 0.0
2017-Nov-05 08:30N 39°17' W 076°36'0 0.0
2017-Nov-05 07:55N 39°17' W 076°36'0 0.0
2017-Nov-05 07:25N 39°17' W 076°36'0 0.0
2017-Nov-05 06:58N 39°17' W 076°36'0 0.0
2017-Nov-05 06:25N 39°17' W 076°36'0 0.0
2017-Nov-05 05:58N 39°17' W 076°36'0 0.0
2017-Nov-05 05:28N 39°17' W 076°36'0 0.0
2017-Nov-05 04:52N 39°17' W 076°36'0 0.0
2017-Nov-05 04:25N 39°17' W 076°36'0 0.0
2017-Nov-05 03:58N 39°17' W 076°36'0 0.0
2017-Nov-05 03:28N 39°17' W 076°36'0 0.0
2017-Nov-05 02:10N 39°17' W 076°36'0 0.0
2017-Nov-05 01:55N 39°17' W 076°36'0 0.0
2017-Nov-05 01:16N 39°17' W 076°36'0 0.0
2017-Nov-05 01:00N 39°17' W 076°36'0 0.0
2017-Nov-05 00:25N 39°17' W 076°36'0 0.0
2017-Nov-04 23:55N 39°17' W 076°36'0 0.0
2017-Nov-04 18:27N 39°17' W 076°36'3 5.8
2017-Nov-04 18:00N 39°15' W 076°34'510.3
2017-Nov-04 17:29N 39°12' W 076°29'611.8
2017-Nov-04 16:59N 39°09' W 076°22'610.3
2017-Nov-04 16:24N 39°13' W 076°15'712.9
2017-Nov-04 15:54N 39°19' W 076°13'512.8
2017-Nov-04 15:30N 39°22' W 076°08'611.6
2017-Nov-04 15:00N 39°25' W 076°02'510.2
2017-Nov-04 14:30N 39°29' W 075°57'4 8.8
2017-Nov-04 14:00N 39°31' W 075°53'4 7.4
2017-Nov-04 13:30N 39°32' W 075°48'4 7.3
2017-Nov-04 13:00N 39°33' W 075°43'4 8.3
2017-Nov-04 12:30N 39°33' W 075°38'4 8.5
2017-Nov-04 12:00N 39°33' W 075°32'2 3.2
2017-Nov-04 11:30N 39°32' W 075°33'0 0.0
2017-Nov-04 11:00N 39°32' W 075°33'0 0.0
2017-Nov-04 10:30N 39°32' W 075°33'0 0.0
2017-Nov-04 10:00N 39°32' W 075°33'0 0.0
2017-Nov-04 09:30N 39°32' W 075°33'0 0.0
2017-Nov-04 09:00N 39°32' W 075°33'0 0.0
2017-Nov-04 08:29N 39°32' W 075°33'0 0.0
2017-Nov-04 07:59N 39°32' W 075°33'0 0.0
2017-Nov-04 07:30N 39°32' W 075°33'0 0.0
2017-Nov-04 07:00N 39°32' W 075°33'0 0.0
2017-Nov-04 06:30N 39°32' W 075°33'0 0.0
2017-Nov-04 06:00N 39°32' W 075°33'0 0.0
2017-Nov-04 05:30N 39°32' W 075°33'0 0.0
2017-Nov-04 05:00N 39°32' W 075°33'0 0.0
2017-Nov-04 04:30N 39°32' W 075°33'0 0.1
2017-Nov-04 04:00N 39°32' W 075°33'0 0.0
2017-Nov-04 03:30N 39°32' W 075°33'0 0.0
2017-Nov-04 03:00N 39°32' W 075°33'0 0.0
2017-Nov-04 02:30N 39°32' W 075°33'0 0.0
2017-Nov-04 02:00N 39°32' W 075°33'0 0.0
2017-Nov-04 01:30N 39°32' W 075°33'0 0.1
2017-Nov-04 01:00N 39°32' W 075°33'0 0.1
2017-Nov-04 00:30N 39°32' W 075°33'0 0.0
2017-Nov-04 00:00N 39°32' W 075°33'0 0.0
2017-Nov-03 23:30N 39°32' W 075°33'0 0.0
2017-Nov-03 23:00N 39°32' W 075°33'0 0.0
2017-Nov-03 22:30N 39°32' W 075°33'0 0.0
2017-Nov-03 21:59N 39°32' W 075°33'0 0.0
2017-Nov-03 21:29N 39°32' W 075°33'0 0.0
2017-Nov-03 20:59N 39°32' W 075°33'0 0.0
2017-Nov-03 20:29N 39°32' W 075°33'0 0.0
2017-Nov-03 20:00N 39°32' W 075°33'0 0.0
2017-Nov-03 19:30N 39°32' W 075°33'0 0.0
2017-Nov-03 19:00N 39°32' W 075°33'0 0.0
2017-Nov-03 18:30N 39°32' W 075°33'0 0.0
2017-Nov-03 18:00N 39°32' W 075°33'0 0.1
2017-Nov-03 17:30N 39°32' W 075°33'0 0.0
2017-Nov-03 17:00N 39°32' W 075°33'0 0.0
2017-Nov-03 16:30N 39°32' W 075°33'0 0.0
2017-Nov-03 16:00N 39°32' W 075°33'0 0.0
2017-Nov-03 15:30N 39°32' W 075°33'0 0.0
2017-Nov-03 15:00N 39°32' W 075°33'3 5.6
2017-Nov-03 14:30N 39°29' W 075°34'713.5
2017-Nov-03 14:01N 39°23' W 075°29'714.4
2017-Nov-03 13:30N 39°18' W 075°23'714.0
2017-Nov-03 13:00N 39°13' W 075°17'713.7
2017-Nov-03 12:30N 39°07' W 075°13'612.9
2017-Nov-03 12:00N 39°01' W 075°09'612.7
2017-Nov-03 11:30N 38°55' W 075°06'5 9.3
2017-Nov-03 10:56N 38°50' W 075°03'4 8.1
2017-Nov-03 10:28N 38°48' W 074°59'5 9.3
2017-Nov-03 09:58N 38°49' W 074°53'4 9.1
2017-Nov-03 09:30N 38°52' W 074°49'5 9.4
2017-Nov-03 08:57N 38°56' W 074°45'4 9.4
2017-Nov-03 08:30N 38°59' W 074°42'5 9.4
2017-Nov-03 08:00N 39°02' W 074°37'5 9.4
2017-Nov-03 07:29N 39°05' W 074°32'5 9.6
2017-Nov-03 07:00N 39°07' W 074°27'5 9.5
2017-Nov-03 06:30N 39°10' W 074°22'5 9.7
2017-Nov-03 06:00N 39°14' W 074°18'5 9.7
2017-Nov-03 05:27N 39°19' W 074°15'5 9.6
2017-Nov-03 04:54N 39°23' W 074°11'4 9.7
2017-Nov-03 04:30N 39°26' W 074°08'7 9.7
2017-Nov-03 03:46N 39°33' W 074°03'2 9.3
2017-Nov-03 03:30N 39°34' W 074°01'5 9.7
2017-Nov-03 03:01N 39°38' W 073°58'5 9.6
2017-Nov-03 02:26N 39°43' W 073°54'5 9.5
2017-Nov-03 01:54N 39°48' W 073°53'5 9.5
2017-Nov-03 01:23N 39°53' W 073°52'7 9.6
2017-Nov-03 00:42N 39°59' W 073°51'3 9.5
2017-Nov-03 00:23N 40°02' W 073°51'5 9.5
2017-Nov-02 23:53N 40°07' W 073°50'14 9.4
2017-Nov-02 22:27N 40°20' W 073°49'4 8.7
2017-Nov-02 21:57N 40°25' W 073°50'4 9.3
2017-Nov-02 21:30N 40°28' W 073°52'5 9.8
2017-Nov-02 20:57N 40°31' W 073°59'4 9.8
2017-Nov-02 20:31N 40°34' W 074°02'611.2
2017-Nov-02 20:01N 40°40' W 074°04'1 2.3
2017-Nov-02 19:30N 40°40' W 074°05'  

Dump ship's entire track history